Airfield :
LOGIN :

Register | Disclaimer

   EN    FR    IT 

 










Legend :    VFR   Marginal VFR   IFR   Intensive IFR   Very Intensive IFR
Visi :
Ceiling :
>= 8 km
>= 3000ft
5 to 8 km
1000 to 3000 ft
1500m to 5 km
500 to 1000 ft
800 to 1500m
200 to 500 ft
< 800m
< 200 ft
Symbols :   Thunderstorms  Fog  Heavy snow  Heavy precipitations  Wind > 20 kt
SIGMETs :     Misc.  Thunderstorms  Icing  Turbulence  Mountain Waves  Volcanic Ashes







- Airport Elevation : 5600 ft
- IATA code : SMV


LSZS - Samedan

CURRENT METAR :
  • 161720Z AUTO 21014KT 9999 BKN090 16/10 Q1021

EXPIRED METARs :
  • 161650Z 22014KT 9999 FEW055 SCT097 17/10 Q1021 RMK W
  • 161620Z 23014KT 9999 BKN075 18/10 Q1021 RMK V
  • 161550Z 23014KT 9999 BKN075 19/10 Q1021 RMK U
  • 161520Z 22013KT 9999 BKN075 19/10 Q1021 RMK T
  • 161450Z 22015KT 9999 BKN075 19/09 Q1021 RMK S

TAF TAF LSZS
Valid from the 16 at 15:00 until the 17 at 00:00 UTC


161425Z 1615/1624 21015KT 9999 FEW075 TX18/1615Z
PROB40
TEMPO 1615/1617 22015G25KT
BECMG 1619/1621 VRB03KT
ATIS : +41 81 834 93 24
No reported NOTAMs for that airfield.



MET'MAP, your aeronautical weather chart ! - Copyright ORBIFLY December 2007 - Disclaimer

ORBIFLY MET'MAP TEAM :

Programming & Development : Alexandra Zaïnal
Concept & Development : Baudouin d'Aumeries
Co-Development & Prog : Marc-Olivier Méhu
Technical & hardware support : Manuel Goepfert

Contact : metmap@orbifly.com




SOURCES & CREDITS :

   NOAA